createdAt,value
2022-10-28T00:01:10.061Z,90.87
2022-10-28T00:03:40.280Z,90.78
2022-10-28T00:06:10.906Z,90.72
2022-10-28T00:08:38.738Z,90.23
2022-10-28T00:11:11.768Z,90.44
2022-10-28T00:13:39.974Z,90.77
2022-10-28T00:16:12.958Z,90.83
2022-10-28T00:18:40.718Z,90.46
2022-10-28T00:21:10.726Z,90.28
2022-10-28T00:23:38.295Z,90.33
2022-10-28T00:26:10.957Z,90.24
2022-10-28T00:28:45.270Z,90.13
2022-10-28T00:31:14.789Z,90.41
2022-10-28T00:33:42.661Z,90.52
2022-10-28T00:36:15.116Z,91.13
2022-10-28T00:38:43.579Z,91.15
2022-10-28T00:41:11.797Z,91.30
2022-10-28T00:43:40.373Z,91.13
2022-10-28T00:46:34.847Z,90.90
2022-10-28T00:49:13.375Z,91.41
2022-10-28T00:51:40.815Z,91.69
2022-10-28T00:54:08.820Z,91.79
2022-10-28T00:56:38.471Z,91.61
2022-10-28T00:59:11.914Z,91.68
2022-10-28T01:01:39.500Z,91.55
2022-10-28T01:04:07.879Z,91.14
2022-10-28T01:06:35.653Z,91.18
2022-10-28T01:09:03.121Z,91.32
2022-10-28T01:11:56.121Z,91.67
2022-10-28T01:14:33.516Z,91.78
2022-10-28T01:17:34.447Z,91.78
2022-10-28T01:20:23.816Z,91.90
2022-10-28T01:23:18.009Z,92.00
2022-10-28T01:25:51.787Z,91.91
2022-10-28T01:28:30.612Z,91.09
2022-10-28T01:31:29.288Z,90.78
2022-10-28T01:34:19.744Z,91.03
2022-10-28T01:37:02.629Z,91.11
2022-10-28T01:39:58.596Z,91.10
2022-10-28T01:43:01.992Z,91.06
2022-10-28T01:45:37.412Z,91.16
2022-10-28T01:48:21.139Z,91.35
2022-10-28T01:51:04.158Z,91.04
2022-10-28T01:53:34.663Z,90.52
2022-10-28T01:56:05.192Z,89.96
2022-10-28T01:58:33.182Z,90.24
2022-10-28T02:01:01.423Z,90.43
2022-10-28T02:03:29.215Z,90.88
2022-10-28T02:05:57.632Z,90.82
2022-10-28T02:08:43.648Z,90.97
2022-10-28T02:11:34.607Z,90.74
2022-10-28T02:14:24.413Z,90.43
2022-10-28T02:17:11.184Z,90.30
2022-10-28T02:19:46.573Z,90.48
2022-10-28T02:22:31.342Z,90.69
2022-10-28T02:25:12.982Z,91.05
2022-10-28T02:27:59.152Z,91.08
2022-10-28T02:30:32.491Z,91.63
2022-10-28T02:33:02.007Z,91.84
2022-10-28T02:35:32.866Z,92.10
2022-10-28T02:38:03.696Z,91.80
2022-10-28T02:40:35.084Z,91.90
2022-10-28T02:43:06.110Z,91.83
2022-10-28T02:45:44.923Z,91.66
2022-10-28T02:48:22.605Z,91.52
2022-10-28T02:50:54.358Z,91.97
2022-10-28T02:53:29.999Z,92.21
2022-10-28T02:55:59.045Z,92.36
2022-10-28T02:58:26.947Z,92.22
2022-10-28T03:00:56.177Z,92.17
2022-10-28T03:03:28.167Z,92.15
2022-10-28T03:05:57.393Z,92.23
2022-10-28T03:08:27.225Z,92.15
2022-10-28T03:10:57.089Z,92.35
2022-10-28T03:13:27.320Z,91.93
2022-10-28T03:15:57.849Z,91.34
2022-10-28T03:18:26.637Z,91.06
2022-10-28T03:20:58.057Z,90.99
2022-10-28T03:23:27.462Z,90.89
2022-10-28T03:25:55.260Z,91.62
2022-10-28T03:28:23.322Z,91.49
2022-10-28T03:30:54.194Z,90.64
2022-10-28T03:33:22.410Z,91.60
2022-10-28T03:35:49.943Z,91.19
2022-10-28T03:38:17.471Z,91.12
2022-10-28T03:40:47.820Z,91.28
2022-10-28T03:43:15.490Z,90.85
2022-10-28T03:45:44.097Z,91.40
2022-10-28T03:48:11.985Z,91.82
2022-10-28T03:50:39.724Z,92.22
2022-10-28T03:53:09.364Z,92.71
2022-10-28T03:55:36.995Z,92.45
2022-10-28T03:58:05.066Z,92.87
2022-10-28T04:00:32.957Z,93.44
2022-10-28T04:03:00.304Z,94.50
2022-10-28T04:05:28.584Z,95.03
2022-10-28T04:07:57.379Z,93.81
2022-10-28T04:10:25.417Z,93.91
2022-10-28T04:12:53.469Z,93.85
2022-10-28T04:15:21.454Z,93.73
2022-10-28T04:17:48.873Z,94.00
2022-10-28T04:20:16.638Z,94.11
2022-10-28T04:22:44.256Z,93.96
2022-10-28T04:25:12.296Z,93.77
2022-10-28T04:27:40.349Z,93.73
2022-10-28T04:30:09.744Z,93.74
2022-10-28T04:32:37.593Z,93.60
2022-10-28T04:35:05.771Z,93.35
2022-10-28T04:37:33.383Z,92.90
2022-10-28T04:40:01.264Z,93.41
2022-10-28T04:42:29.801Z,93.62
2022-10-28T04:44:58.056Z,93.18
2022-10-28T04:47:25.978Z,93.76
2022-10-28T04:49:54.729Z,94.17
2022-10-28T04:52:23.042Z,93.93
2022-10-28T04:54:50.627Z,93.78
2022-10-28T04:57:19.095Z,93.67
2022-10-28T04:59:47.232Z,93.53
2022-10-28T05:02:15.113Z,93.23
2022-10-28T05:04:43.740Z,92.74
2022-10-28T05:07:13.005Z,92.34
2022-10-28T05:09:41.399Z,91.83
2022-10-28T05:12:09.009Z,91.88
2022-10-28T05:14:36.653Z,91.87
2022-10-28T05:17:05.177Z,91.83
2022-10-28T05:19:33.179Z,91.61
2022-10-28T05:22:04.951Z,91.30
2022-10-28T05:24:37.379Z,91.66
2022-10-28T05:27:05.385Z,91.30
2022-10-28T05:29:33.512Z,91.33
2022-10-28T05:32:01.107Z,90.92
2022-10-28T05:34:29.500Z,91.58
2022-10-28T05:36:59.032Z,92.39
2022-10-28T05:39:27.364Z,92.60
2022-10-28T05:42:02.837Z,92.71
2022-10-28T05:44:33.465Z,93.08
2022-10-28T05:47:02.811Z,93.46
2022-10-28T05:49:33.327Z,93.75
2022-10-28T05:52:04.931Z,93.75
2022-10-28T05:54:38.783Z,93.64
2022-10-28T06:01:36.886Z,93.53
2022-10-28T06:04:05.115Z,93.80
2022-10-28T06:06:32.839Z,93.71
2022-10-28T06:09:00.360Z,93.75
2022-10-28T06:11:26.269Z,93.89
2022-10-28T06:13:53.693Z,93.87
2022-10-28T06:16:21.241Z,93.87
2022-10-28T06:18:49.162Z,93.99
2022-10-28T06:21:19.400Z,94.15
2022-10-28T06:23:50.110Z,93.61
2022-10-28T06:26:17.561Z,93.75
2022-10-28T06:28:48.182Z,93.32
2022-10-28T06:31:15.910Z,93.10
2022-10-28T06:33:43.430Z,93.18
2022-10-28T06:36:10.863Z,93.10
2022-10-28T06:38:38.101Z,93.43
2022-10-28T06:41:05.972Z,92.69
2022-10-28T06:43:33.511Z,92.92
2022-10-28T06:46:04.491Z,93.28
2022-10-28T06:48:33.517Z,93.34
2022-10-28T06:51:01.303Z,93.47
2022-10-28T06:53:28.812Z,93.29
2022-10-28T06:55:57.404Z,93.21
2022-10-28T06:58:25.710Z,92.72
2022-10-28T07:01:04.621Z,92.35
2022-10-28T07:03:36.212Z,92.12
2022-10-28T07:06:03.835Z,92.47
2022-10-28T07:08:31.534Z,92.35
2022-10-28T07:11:00.254Z,92.30
2022-10-28T07:13:28.318Z,92.83
2022-10-28T07:15:57.626Z,93.07
2022-10-28T07:18:25.675Z,92.65
2022-10-28T07:20:53.221Z,92.76
2022-10-28T07:23:20.688Z,92.61
2022-10-28T07:25:59.332Z,92.86
2022-10-28T07:28:27.014Z,92.09
2022-10-28T07:31:06.179Z,92.15
2022-10-28T07:33:33.675Z,91.62
2022-10-28T07:36:04.685Z,91.28
2022-10-28T07:38:32.251Z,91.28
2022-10-28T07:41:03.274Z,91.84
2022-10-28T07:43:31.095Z,91.88
2022-10-28T07:45:58.730Z,91.78
2022-10-28T07:48:26.126Z,91.70
2022-10-28T07:50:53.871Z,91.07
2022-10-28T07:53:22.686Z,90.65
2022-10-28T07:55:57.428Z,90.93
2022-10-28T07:58:24.830Z,91.19
2022-10-28T08:00:52.537Z,90.78
2022-10-28T08:03:20.090Z,90.99
2022-10-28T08:05:47.577Z,90.51
2022-10-28T08:08:14.900Z,89.97
2022-10-28T08:10:42.541Z,90.78
2022-10-28T08:13:22.713Z,91.41
2022-10-28T08:15:55.143Z,91.48
2022-10-28T08:18:24.469Z,91.57
2022-10-28T08:20:52.240Z,90.63
2022-10-28T08:23:19.825Z,90.42
2022-10-28T08:25:51.482Z,90.74
2022-10-28T08:28:19.211Z,91.36
2022-10-28T08:30:57.295Z,91.51
2022-10-28T08:33:36.610Z,90.73
2022-10-28T08:36:04.532Z,90.74
2022-10-28T08:38:32.454Z,90.99
2022-10-28T08:41:09.118Z,91.83
2022-10-28T08:44:02.331Z,91.44
2022-10-28T08:46:40.988Z,91.16
2022-10-28T08:49:14.573Z,91.22
2022-10-28T08:52:24.088Z,90.66
2022-10-28T08:55:28.904Z,89.99
2022-10-28T08:57:58.544Z,90.44
2022-10-28T09:00:28.624Z,89.98
2022-10-28T09:03:01.756Z,89.95
2022-10-28T09:05:29.755Z,89.95
2022-10-28T09:07:57.216Z,90.21
2022-10-28T09:10:56.938Z,90.31
2022-10-28T09:13:37.477Z,90.08
2022-10-28T09:16:18.514Z,89.35
2022-10-28T09:18:56.961Z,88.89
2022-10-28T09:21:37.361Z,88.88
2022-10-28T09:24:14.552Z,88.87
2022-10-28T09:26:53.048Z,88.56
2022-10-28T09:29:52.759Z,89.03
2022-10-28T09:32:28.638Z,89.24
2022-10-28T09:34:58.144Z,88.83
2022-10-28T09:37:30.644Z,88.57
2022-10-28T09:40:01.800Z,88.80
2022-10-28T09:42:31.954Z,88.57
2022-10-28T09:45:02.533Z,88.72
2022-10-28T09:47:32.977Z,87.80
2022-10-28T09:50:02.653Z,88.34
2022-10-28T09:52:36.200Z,88.43
2022-10-28T09:55:10.749Z,88.27
2022-10-28T09:57:38.054Z,88.61
2022-10-28T10:00:06.603Z,88.29
2022-10-28T10:02:37.085Z,87.78
2022-10-28T10:05:17.080Z,88.41
2022-10-28T10:07:50.379Z,88.27
2022-10-28T10:10:27.417Z,87.31
2022-10-28T10:12:58.099Z,86.40
2022-10-28T10:16:03.162Z,86.60
2022-10-28T10:18:34.704Z,88.02
2022-10-28T10:21:07.203Z,87.65
2022-10-28T10:23:37.094Z,87.22
2022-10-28T10:26:12.578Z,87.14
2022-10-28T10:28:45.543Z,86.57
2022-10-28T10:31:25.838Z,86.14
2022-10-28T10:33:54.641Z,85.96
2022-10-28T10:36:24.297Z,86.76
2022-10-28T10:38:59.470Z,86.23
2022-10-28T10:41:37.707Z,85.74
2022-10-28T10:44:23.956Z,85.94
2022-10-28T10:47:05.788Z,86.63
2022-10-28T10:49:37.362Z,86.59
2022-10-28T10:52:08.724Z,86.38
2022-10-28T10:54:36.691Z,86.41
2022-10-28T10:57:17.612Z,86.10
2022-10-28T10:59:49.492Z,85.82
2022-10-28T11:02:26.219Z,86.35
2022-10-28T11:04:59.944Z,85.87
2022-10-28T11:07:28.420Z,85.89
2022-10-28T11:09:55.986Z,86.05
2022-10-28T11:12:37.380Z,85.60
2022-10-28T11:15:12.811Z,86.17
2022-10-28T11:17:40.497Z,85.21
2022-10-28T11:20:44.129Z,85.30
2022-10-28T11:23:51.883Z,85.66
2022-10-28T11:26:19.715Z,85.87
2022-10-28T11:28:59.791Z,86.10
2022-10-28T11:31:46.322Z,85.89
2022-10-28T11:34:17.593Z,86.15
2022-10-28T11:36:51.263Z,84.44
2022-10-28T11:39:28.204Z,83.57
2022-10-28T11:42:43.164Z,83.65
2022-10-28T11:45:28.339Z,83.79
2022-10-28T11:48:14.164Z,82.84
2022-10-28T11:51:19.091Z,81.55
2022-10-28T11:53:49.831Z,80.69
2022-10-28T11:56:26.298Z,80.14
2022-10-28T11:59:01.032Z,80.38
2022-10-28T12:01:47.165Z,79.95
2022-10-28T12:04:14.592Z,79.85
2022-10-28T12:06:57.321Z,79.77
2022-10-28T12:09:24.529Z,79.31
2022-10-28T12:12:06.687Z,78.49
2022-10-28T12:14:52.729Z,78.81
2022-10-28T12:17:27.925Z,78.95
2022-10-28T12:19:58.711Z,78.86
2022-10-28T12:22:34.211Z,78.78
2022-10-28T12:25:03.550Z,78.08
2022-10-28T12:27:36.681Z,78.30
2022-10-28T12:30:21.061Z,79.08
2022-10-28T12:33:19.224Z,78.34
2022-10-28T12:36:11.613Z,76.96
2022-10-28T12:38:43.178Z,76.47
2022-10-28T12:41:23.627Z,77.43
2022-10-28T12:43:53.402Z,77.60
2022-10-28T12:46:24.491Z,77.11
2022-10-28T12:48:58.965Z,77.15
2022-10-28T12:51:31.588Z,76.66
2022-10-28T12:54:02.579Z,77.21
2022-10-28T12:56:42.777Z,77.09
2022-10-28T12:59:30.820Z,77.16
2022-10-28T13:02:01.466Z,77.40
2022-10-28T13:04:29.164Z,77.79
2022-10-28T13:07:15.554Z,77.82
2022-10-28T13:09:54.936Z,77.57
2022-10-28T13:12:27.844Z,77.61
2022-10-28T13:15:13.728Z,77.72
2022-10-28T13:17:51.163Z,78.25
2022-10-28T13:20:40.743Z,78.49
2022-10-28T13:23:24.108Z,78.58
2022-10-28T13:25:54.336Z,78.07
2022-10-28T13:28:24.139Z,78.14
2022-10-28T13:31:07.145Z,78.53
2022-10-28T13:33:36.354Z,79.05
2022-10-28T13:36:20.094Z,79.53
2022-10-28T13:38:51.970Z,79.25
2022-10-28T13:41:39.113Z,79.15
2022-10-28T13:44:10.337Z,79.59
2022-10-28T13:46:59.588Z,79.56
2022-10-28T13:49:37.816Z,79.25
2022-10-28T13:52:08.468Z,79.07
2022-10-28T13:54:45.280Z,79.29
2022-10-28T13:57:35.300Z,79.11
2022-10-28T14:00:17.882Z,79.07
2022-10-28T14:03:05.958Z,79.45
2022-10-28T14:05:33.360Z,79.46
2022-10-28T14:08:05.215Z,79.49
2022-10-28T14:10:38.685Z,79.82
2022-10-28T14:13:20.411Z,79.78
2022-10-28T14:15:50.695Z,79.75
2022-10-28T14:18:42.247Z,80.47
2022-10-28T14:21:09.533Z,79.94
2022-10-28T14:23:39.867Z,80.03
2022-10-28T14:26:07.230Z,80.21
2022-10-28T14:28:34.606Z,79.72
2022-10-28T14:31:38.387Z,80.02
2022-10-28T14:34:05.742Z,80.19
2022-10-28T14:36:49.113Z,79.95
2022-10-28T14:39:24.345Z,80.60
2022-10-28T14:42:06.889Z,80.25
2022-10-28T14:45:11.774Z,80.83
2022-10-28T14:47:47.861Z,80.79
2022-10-28T14:50:25.601Z,80.73
2022-10-28T14:52:53.831Z,81.18
2022-10-28T14:55:41.399Z,81.31
2022-10-28T14:58:14.876Z,81.09
2022-10-28T15:00:46.347Z,80.85
2022-10-28T15:03:14.245Z,81.32
2022-10-28T15:05:41.500Z,81.08
2022-10-28T15:08:09.467Z,81.03
2022-10-28T15:10:39.295Z,81.14
2022-10-28T15:13:13.464Z,81.39
2022-10-28T15:15:54.091Z,81.53
2022-10-28T15:18:25.488Z,81.44
2022-10-28T15:21:11.992Z,81.67
2022-10-28T15:23:39.237Z,82.11
2022-10-28T15:26:07.748Z,82.03
2022-10-28T15:28:35.077Z,82.63
2022-10-28T15:31:02.340Z,82.82
2022-10-28T15:33:39.251Z,82.88
2022-10-28T15:36:26.893Z,82.67
2022-10-28T15:39:15.906Z,83.00
2022-10-28T15:41:44.580Z,82.68
2022-10-28T15:44:31.880Z,83.08
2022-10-28T15:46:59.627Z,83.07
2022-10-28T15:49:38.940Z,83.39
2022-10-28T15:52:18.370Z,84.40
2022-10-28T15:54:55.325Z,84.36
2022-10-28T15:57:24.438Z,84.52
2022-10-28T16:00:28.843Z,85.00
2022-10-28T16:02:59.419Z,85.62
2022-10-28T16:05:33.145Z,86.24
2022-10-28T16:08:01.491Z,86.12
2022-10-28T16:10:29.347Z,86.39
2022-10-28T16:12:56.628Z,86.79
2022-10-28T16:15:24.059Z,86.96
2022-10-28T16:17:51.552Z,86.91
2022-10-28T16:20:30.285Z,87.18
2022-10-28T16:22:57.673Z,87.38
2022-10-28T16:25:25.041Z,87.52
2022-10-28T16:27:52.658Z,87.58
2022-10-28T16:30:20.289Z,88.08
2022-10-28T16:32:48.173Z,88.45
2022-10-28T16:35:18.063Z,89.12
2022-10-28T16:37:47.392Z,88.89
2022-10-28T16:40:45.490Z,88.91
2022-10-28T16:43:04.356Z,89.23
2022-10-28T16:45:32.080Z,89.75
2022-10-28T16:47:59.338Z,89.86
2022-10-28T16:50:26.680Z,90.25
2022-10-28T16:52:56.479Z,90.41
2022-10-28T16:55:24.024Z,90.20
2022-10-28T16:57:51.410Z,90.06
2022-10-28T17:00:19.506Z,90.36
2022-10-28T17:02:50.891Z,89.75
2022-10-28T17:05:20.039Z,89.89
2022-10-28T17:07:47.421Z,90.02
2022-10-28T17:10:15.212Z,90.55
2022-10-28T17:12:42.558Z,90.71
2022-10-28T17:15:10.272Z,90.62
2022-10-28T17:17:37.510Z,90.62
2022-10-28T17:20:05.574Z,91.23
2022-10-28T17:22:33.069Z,91.39
2022-10-28T17:25:00.374Z,91.89
2022-10-28T17:27:27.652Z,92.03
2022-10-28T17:29:55.055Z,92.12
2022-10-28T17:32:22.511Z,91.66
2022-10-28T17:34:50.450Z,92.12
2022-10-28T17:37:17.679Z,92.36
2022-10-28T17:39:45.096Z,92.35
2022-10-28T17:42:12.564Z,92.55
2022-10-28T17:44:40.133Z,92.72
2022-10-28T17:47:07.457Z,93.13
2022-10-28T17:49:36.666Z,93.35
2022-10-28T17:52:03.863Z,93.28
2022-10-28T17:54:31.262Z,93.17
2022-10-28T17:56:58.692Z,93.20
2022-10-28T17:59:25.920Z,93.50
2022-10-28T18:01:54.804Z,93.30
2022-10-28T18:04:26.653Z,93.13
2022-10-28T18:06:55.094Z,92.94
2022-10-28T18:09:22.995Z,92.88
2022-10-28T18:11:50.535Z,92.81
2022-10-28T18:14:18.024Z,92.60
2022-10-28T18:16:46.840Z,92.72
2022-10-28T18:19:14.279Z,93.01
2022-10-28T18:21:41.692Z,93.16
2022-10-28T18:24:09.579Z,93.40
2022-10-28T18:26:37.707Z,93.61
2022-10-28T18:29:06.398Z,93.76
2022-10-28T18:31:34.264Z,93.76
2022-10-28T18:34:02.853Z,93.53
2022-10-28T18:36:34.491Z,93.32
2022-10-28T18:39:06.208Z,93.43
2022-10-28T18:41:35.059Z,93.62
2022-10-28T18:44:02.893Z,93.83
2022-10-28T18:46:31.524Z,94.32
2022-10-28T18:51:31.510Z,94.21
2022-10-28T18:53:59.030Z,94.10
2022-10-28T18:56:29.594Z,94.04
2022-10-28T18:58:57.868Z,94.20
2022-10-28T19:01:28.013Z,94.16
2022-10-28T19:04:00.278Z,94.20
2022-10-28T19:06:32.973Z,94.28
2022-10-28T19:09:04.795Z,94.46
2022-10-28T19:11:32.975Z,94.58
2022-10-28T19:14:02.279Z,94.55
2022-10-28T19:16:30.588Z,94.68
2022-10-28T19:18:59.035Z,94.34
2022-10-28T19:21:26.830Z,94.44
2022-10-28T19:23:54.270Z,94.23
2022-10-28T19:26:23.726Z,94.30
2022-10-28T19:28:51.724Z,94.42
2022-10-28T19:31:20.675Z,94.43
2022-10-28T19:33:48.052Z,94.40
2022-10-28T19:36:19.919Z,94.27
2022-10-28T19:38:48.445Z,94.04
2022-10-28T19:41:19.936Z,93.99
2022-10-28T19:43:47.644Z,94.01
2022-10-28T19:46:16.498Z,94.00
2022-10-28T19:48:45.876Z,93.98
2022-10-28T19:51:14.610Z,94.05
2022-10-28T19:53:42.364Z,94.04
2022-10-28T19:56:09.737Z,94.14
2022-10-28T19:58:37.937Z,94.18
2022-10-28T20:01:07.250Z,94.02
2022-10-28T20:03:35.563Z,93.90
2022-10-28T20:06:10.680Z,94.02
2022-10-28T20:08:45.216Z,94.01
2022-10-28T20:11:21.324Z,93.94
2022-10-28T20:13:56.355Z,93.95
2022-10-28T20:16:24.381Z,94.11
2022-10-28T20:18:51.661Z,94.09
2022-10-28T20:21:20.127Z,94.03
2022-10-28T20:26:23.672Z,94.12
2022-10-28T20:28:51.395Z,94.23
2022-10-28T20:31:21.271Z,94.02
2022-10-28T20:33:53.066Z,94.00
2022-10-28T20:36:23.750Z,93.94
2022-10-28T20:38:59.940Z,93.84
2022-10-28T20:41:29.606Z,93.94
2022-10-28T20:43:57.951Z,94.12
2022-10-28T20:46:26.256Z,94.30
2022-10-28T20:48:57.191Z,94.38
2022-10-28T20:51:25.611Z,94.25
2022-10-28T20:53:52.922Z,94.13
2022-10-28T20:56:24.946Z,94.17
2022-10-28T20:58:53.078Z,93.97
2022-10-28T21:01:26.028Z,94.10
2022-10-28T21:03:54.658Z,94.11
2022-10-28T21:06:22.626Z,94.14
2022-10-28T21:08:49.984Z,94.13
2022-10-28T21:11:17.477Z,94.05
2022-10-28T21:13:48.867Z,93.98
2022-10-28T21:16:16.363Z,94.09
2022-10-28T21:18:43.691Z,93.99
2022-10-28T21:21:11.383Z,93.75
2022-10-28T21:23:39.220Z,93.75
2022-10-28T21:26:07.413Z,93.74
2022-10-28T21:28:34.950Z,93.69
2022-10-28T21:31:04.594Z,93.56
2022-10-28T21:33:32.434Z,93.47
2022-10-28T21:36:01.271Z,93.39
2022-10-28T21:38:28.814Z,93.43
2022-10-28T21:41:11.134Z,93.34
2022-10-28T21:43:40.743Z,93.10
2022-10-28T21:46:08.443Z,93.21
2022-10-28T21:48:36.124Z,93.47
2022-10-28T21:51:08.497Z,93.60
2022-10-28T21:53:39.270Z,93.68
2022-10-28T21:56:16.264Z,93.36
2022-10-28T21:58:44.888Z,92.95
2022-10-28T22:01:13.820Z,92.86
2022-10-28T22:03:41.307Z,93.01
2022-10-28T22:06:08.700Z,93.04
2022-10-28T22:08:36.003Z,93.03
2022-10-28T22:11:05.092Z,93.05
2022-10-28T22:13:33.235Z,92.90
2022-10-28T22:16:01.823Z,92.88
2022-10-28T22:18:30.040Z,92.91
2022-10-28T22:20:57.451Z,92.95
2022-10-28T22:23:25.553Z,93.07
2022-10-28T22:25:52.911Z,93.20
2022-10-28T22:28:20.380Z,93.58
2022-10-28T22:30:47.872Z,93.71
2022-10-28T22:33:15.172Z,93.94
2022-10-28T22:35:42.715Z,94.15
2022-10-28T22:38:10.055Z,94.52
2022-10-28T22:40:37.749Z,94.50
2022-10-28T22:43:05.185Z,94.46
2022-10-28T22:45:32.536Z,94.58
2022-10-28T22:48:00.196Z,94.41
2022-10-28T22:50:27.409Z,94.01
2022-10-28T22:52:55.463Z,93.69
2022-10-28T22:55:22.678Z,93.73
2022-10-28T22:57:50.053Z,93.64
2022-10-28T23:00:20.515Z,93.62
2022-10-28T23:02:48.586Z,93.33
2022-10-28T23:05:16.053Z,93.40
2022-10-28T23:07:43.456Z,93.31
2022-10-28T23:10:11.413Z,93.38
2022-10-28T23:12:38.968Z,93.07
2022-10-28T23:15:07.087Z,92.73
2022-10-28T23:17:34.878Z,92.82
2022-10-28T23:20:02.519Z,92.49
2022-10-28T23:22:30.162Z,92.67
2022-10-28T23:24:57.665Z,92.80
2022-10-28T23:27:25.533Z,93.14
2022-10-28T23:29:53.489Z,93.43
2022-10-28T23:32:20.917Z,93.46
2022-10-28T23:34:48.500Z,93.79
2022-10-28T23:37:15.945Z,93.93
2022-10-28T23:39:43.185Z,93.93
2022-10-28T23:42:10.972Z,93.96
2022-10-28T23:44:38.219Z,93.95
2022-10-28T23:47:05.627Z,93.79
2022-10-28T23:49:32.950Z,93.86
2022-10-28T23:52:00.272Z,93.89
2022-10-28T23:54:28.195Z,93.91
2022-10-28T23:56:55.741Z,93.80
2022-10-28T23:59:23.012Z,93.73
